sensor_id;sensor_type;location;lat;lon;timestamp;temperature;humidity
9486;DHT22;4781;48.776;9.200;2023-02-23T00:02:19;9.20;99.90
9486;DHT22;4781;48.776;9.200;2023-02-23T00:04:47;9.20;99.90
9486;DHT22;4781;48.776;9.200;2023-02-23T00:07:15;9.20;99.90
9486;DHT22;4781;48.776;9.200;2023-02-23T00:09:45;9.20;99.90
9486;DHT22;4781;48.776;9.200;2023-02-23T00:12:14;9.20;99.90
9486;DHT22;4781;48.776;9.200;2023-02-23T00:14:42;9.20;99.90
9486;DHT22;4781;48.776;9.200;2023-02-23T00:17:17;9.20;99.90
9486;DHT22;4781;48.776;9.200;2023-02-23T00:19:45;9.20;99.90
9486;DHT22;4781;48.776;9.200;2023-02-23T00:22:14;9.30;99.90
9486;DHT22;4781;48.776;9.200;2023-02-23T00:24:44;9.30;99.90
9486;DHT22;4781;48.776;9.200;2023-02-23T00:27:13;9.30;99.90
9486;DHT22;4781;48.776;9.200;2023-02-23T00:29:43;9.30;99.90
9486;DHT22;4781;48.776;9.200;2023-02-23T00:32:13;9.30;99.90
9486;DHT22;4781;48.776;9.200;2023-02-23T00:34:45;9.30;99.90
9486;DHT22;4781;48.776;9.200;2023-02-23T00:37:17;9.30;99.90
9486;DHT22;4781;48.776;9.200;2023-02-23T00:39:48;9.30;99.90
9486;DHT22;4781;48.776;9.200;2023-02-23T00:42:18;9.20;99.90
9486;DHT22;4781;48.776;9.200;2023-02-23T00:44:48;9.20;99.90
9486;DHT22;4781;48.776;9.200;2023-02-23T00:47:18;9.10;99.90
9486;DHT22;4781;48.776;9.200;2023-02-23T00:49:46;9.10;99.90
9486;DHT22;4781;48.776;9.200;2023-02-23T00:52:15;9.10;99.90
9486;DHT22;4781;48.776;9.200;2023-02-23T00:54:44;9.10;99.90
9486;DHT22;4781;48.776;9.200;2023-02-23T00:57:12;9.10;99.90
9486;DHT22;4781;48.776;9.200;2023-02-23T00:59:41;9.10;99.90
9486;DHT22;4781;48.776;9.200;2023-02-23T01:02:17;9.10;99.90
9486;DHT22;4781;48.776;9.200;2023-02-23T01:04:45;9.00;99.90
9486;DHT22;4781;48.776;9.200;2023-02-23T01:07:16;9.00;99.90
9486;DHT22;4781;48.776;9.200;2023-02-23T01:09:44;9.00;99.90
9486;DHT22;4781;48.776;9.200;2023-02-23T01:12:12;9.00;99.90
9486;DHT22;4781;48.776;9.200;2023-02-23T01:14:42;9.00;99.90
9486;DHT22;4781;48.776;9.200;2023-02-23T01:17:12;9.00;99.90
9486;DHT22;4781;48.776;9.200;2023-02-23T01:19:40;9.00;99.90
9486;DHT22;4781;48.776;9.200;2023-02-23T01:22:10;8.80;99.90
9486;DHT22;4781;48.776;9.200;2023-02-23T01:24:38;8.80;99.90
9486;DHT22;4781;48.776;9.200;2023-02-23T01:27:08;8.80;99.90
9486;DHT22;4781;48.776;9.200;2023-02-23T01:29:36;8.70;99.90
9486;DHT22;4781;48.776;9.200;2023-02-23T01:32:05;8.80;99.90
9486;DHT22;4781;48.776;9.200;2023-02-23T01:34:33;8.80;99.90
9486;DHT22;4781;48.776;9.200;2023-02-23T01:37:02;8.70;99.90
9486;DHT22;4781;48.776;9.200;2023-02-23T01:39:31;8.80;99.90
9486;DHT22;4781;48.776;9.200;2023-02-23T01:42:00;8.80;99.90
9486;DHT22;4781;48.776;9.200;2023-02-23T01:47:05;8.90;99.90
9486;DHT22;4781;48.776;9.200;2023-02-23T01:49:34;8.90;99.90
9486;DHT22;4781;48.776;9.200;2023-02-23T01:52:06;8.90;99.90
9486;DHT22;4781;48.776;9.200;2023-02-23T01:54:38;8.80;99.90
9486;DHT22;4781;48.776;9.200;2023-02-23T01:57:10;8.80;99.90
9486;DHT22;4781;48.776;9.200;2023-02-23T01:59:45;8.80;99.90
9486;DHT22;4781;48.776;9.200;2023-02-23T02:02:17;8.80;99.90
9486;DHT22;4781;48.776;9.200;2023-02-23T02:04:54;8.80;99.90
9486;DHT22;4781;48.776;9.200;2023-02-23T02:07:24;8.80;99.90
9486;DHT22;4781;48.776;9.200;2023-02-23T02:09:55;8.80;99.90
9486;DHT22;4781;48.776;9.200;2023-02-23T02:12:37;8.80;99.90
9486;DHT22;4781;48.776;9.200;2023-02-23T02:15:07;8.90;99.90
9486;DHT22;4781;48.776;9.200;2023-02-23T02:17:51;8.90;99.90
9486;DHT22;4781;48.776;9.200;2023-02-23T02:23:52;8.80;99.90
9486;DHT22;4781;48.776;9.200;2023-02-23T02:42:35;8.80;99.90
9486;DHT22;4781;48.776;9.200;2023-02-23T02:48:23;8.80;99.90
9486;DHT22;4781;48.776;9.200;2023-02-23T02:51:19;8.80;99.90
9486;DHT22;4781;48.776;9.200;2023-02-23T02:54:02;8.80;99.90
9486;DHT22;4781;48.776;9.200;2023-02-23T02:56:36;8.80;99.90
9486;DHT22;4781;48.776;9.200;2023-02-23T03:02:18;8.80;99.90
9486;DHT22;4781;48.776;9.200;2023-02-23T03:05:17;8.80;99.90
9486;DHT22;4781;48.776;9.200;2023-02-23T03:11:19;8.80;99.90
9486;DHT22;4781;48.776;9.200;2023-02-23T03:14:32;8.80;99.90
9486;DHT22;4781;48.776;9.200;2023-02-23T03:17:38;8.80;99.90
9486;DHT22;4781;48.776;9.200;2023-02-23T03:20:33;8.80;99.90
9486;DHT22;4781;48.776;9.200;2023-02-23T03:23:59;8.80;99.90
9486;DHT22;4781;48.776;9.200;2023-02-23T03:26:52;8.80;99.90
9486;DHT22;4781;48.776;9.200;2023-02-23T03:32:53;8.80;99.90
9486;DHT22;4781;48.776;9.200;2023-02-23T03:35:44;8.80;99.90
9486;DHT22;4781;48.776;9.200;2023-02-23T03:38:45;8.80;99.90
9486;DHT22;4781;48.776;9.200;2023-02-23T03:41:38;8.90;99.90
9486;DHT22;4781;48.776;9.200;2023-02-23T03:44:28;8.90;99.90
9486;DHT22;4781;48.776;9.200;2023-02-23T03:47:17;8.90;99.90
9486;DHT22;4781;48.776;9.200;2023-02-23T03:50:08;8.90;99.90
9486;DHT22;4781;48.776;9.200;2023-02-23T03:52:57;8.90;99.90
9486;DHT22;4781;48.776;9.200;2023-02-23T03:55:47;8.90;99.90
9486;DHT22;4781;48.776;9.200;2023-02-23T03:58:38;8.90;99.90
9486;DHT22;4781;48.776;9.200;2023-02-23T04:01:26;8.90;99.90
9486;DHT22;4781;48.776;9.200;2023-02-23T04:04:12;9.00;99.90
9486;DHT22;4781;48.776;9.200;2023-02-23T04:07:00;8.90;99.90
9486;DHT22;4781;48.776;9.200;2023-02-23T04:09:50;9.00;99.90
9486;DHT22;4781;48.776;9.200;2023-02-23T04:12:46;9.00;99.90
9486;DHT22;4781;48.776;9.200;2023-02-23T04:16:09;9.00;99.90
9486;DHT22;4781;48.776;9.200;2023-02-23T04:18:36;9.00;99.90
9486;DHT22;4781;48.776;9.200;2023-02-23T04:21:06;9.00;99.90
9486;DHT22;4781;48.776;9.200;2023-02-23T04:23:35;9.00;99.90
9486;DHT22;4781;48.776;9.200;2023-02-23T04:26:06;9.10;99.90
9486;DHT22;4781;48.776;9.200;2023-02-23T04:28:34;9.10;99.90
9486;DHT22;4781;48.776;9.200;2023-02-23T04:31:04;9.10;99.90
9486;DHT22;4781;48.776;9.200;2023-02-23T04:33:34;9.10;99.90
9486;DHT22;4781;48.776;9.200;2023-02-23T04:36:03;9.10;99.90
9486;DHT22;4781;48.776;9.200;2023-02-23T04:38:34;9.00;99.90
9486;DHT22;4781;48.776;9.200;2023-02-23T04:41:01;9.10;99.90
9486;DHT22;4781;48.776;9.200;2023-02-23T04:43:30;9.10;99.90
9486;DHT22;4781;48.776;9.200;2023-02-23T04:45:58;9.10;99.90
9486;DHT22;4781;48.776;9.200;2023-02-23T04:48:27;9.00;99.90
9486;DHT22;4781;48.776;9.200;2023-02-23T04:50:55;9.10;99.90
9486;DHT22;4781;48.776;9.200;2023-02-23T04:53:24;9.10;99.90
9486;DHT22;4781;48.776;9.200;2023-02-23T04:55:52;9.10;99.90
9486;DHT22;4781;48.776;9.200;2023-02-23T04:58:21;9.00;99.90
9486;DHT22;4781;48.776;9.200;2023-02-23T05:00:49;9.00;99.90
9486;DHT22;4781;48.776;9.200;2023-02-23T05:03:18;9.00;99.90
9486;DHT22;4781;48.776;9.200;2023-02-23T05:05:46;9.10;99.90
9486;DHT22;4781;48.776;9.200;2023-02-23T05:08:15;9.00;99.90
9486;DHT22;4781;48.776;9.200;2023-02-23T05:10:45;9.00;99.90
9486;DHT22;4781;48.776;9.200;2023-02-23T05:13:13;8.90;99.90
9486;DHT22;4781;48.776;9.200;2023-02-23T05:15:42;8.80;99.90
9486;DHT22;4781;48.776;9.200;2023-02-23T05:18:10;9.00;99.90
9486;DHT22;4781;48.776;9.200;2023-02-23T05:20:43;9.00;99.90
9486;DHT22;4781;48.776;9.200;2023-02-23T05:23:11;8.90;99.90
9486;DHT22;4781;48.776;9.200;2023-02-23T05:25:40;8.90;99.90
9486;DHT22;4781;48.776;9.200;2023-02-23T05:28:08;8.80;99.90
9486;DHT22;4781;48.776;9.200;2023-02-23T05:30:38;8.80;99.90
9486;DHT22;4781;48.776;9.200;2023-02-23T05:33:06;8.80;99.90
9486;DHT22;4781;48.776;9.200;2023-02-23T05:35:38;8.80;99.90
9486;DHT22;4781;48.776;9.200;2023-02-23T05:38:07;8.80;99.90
9486;DHT22;4781;48.776;9.200;2023-02-23T05:40:36;8.80;99.90
9486;DHT22;4781;48.776;9.200;2023-02-23T05:43:05;8.80;99.90
9486;DHT22;4781;48.776;9.200;2023-02-23T05:45:35;8.80;99.90
9486;DHT22;4781;48.776;9.200;2023-02-23T05:48:06;8.80;99.90
9486;DHT22;4781;48.776;9.200;2023-02-23T05:50:35;8.80;99.90
9486;DHT22;4781;48.776;9.200;2023-02-23T05:53:03;8.80;99.90
9486;DHT22;4781;48.776;9.200;2023-02-23T05:55:32;8.80;99.90
9486;DHT22;4781;48.776;9.200;2023-02-23T05:58:00;8.80;99.90
9486;DHT22;4781;48.776;9.200;2023-02-23T06:00:31;8.80;99.90
9486;DHT22;4781;48.776;9.200;2023-02-23T06:02:58;8.80;99.90
9486;DHT22;4781;48.776;9.200;2023-02-23T06:05:27;8.80;99.90
9486;DHT22;4781;48.776;9.200;2023-02-23T06:07:55;8.90;99.90
9486;DHT22;4781;48.776;9.200;2023-02-23T06:10:24;8.80;99.90
9486;DHT22;4781;48.776;9.200;2023-02-23T06:12:54;8.80;99.90
9486;DHT22;4781;48.776;9.200;2023-02-23T06:15:22;8.80;99.90
9486;DHT22;4781;48.776;9.200;2023-02-23T06:17:50;8.80;99.90
9486;DHT22;4781;48.776;9.200;2023-02-23T06:20:19;8.80;99.90
9486;DHT22;4781;48.776;9.200;2023-02-23T06:22:48;8.80;99.90
9486;DHT22;4781;48.776;9.200;2023-02-23T06:25:16;8.80;99.90
9486;DHT22;4781;48.776;9.200;2023-02-23T06:27:45;8.80;99.90
9486;DHT22;4781;48.776;9.200;2023-02-23T06:30:13;8.80;99.90
9486;DHT22;4781;48.776;9.200;2023-02-23T06:32:42;8.70;99.90
9486;DHT22;4781;48.776;9.200;2023-02-23T06:35:11;8.70;99.90
9486;DHT22;4781;48.776;9.200;2023-02-23T06:37:40;8.80;99.90
9486;DHT22;4781;48.776;9.200;2023-02-23T06:40:09;8.80;99.90
9486;DHT22;4781;48.776;9.200;2023-02-23T06:42:38;8.80;99.90
9486;DHT22;4781;48.776;9.200;2023-02-23T06:45:06;8.80;99.90
9486;DHT22;4781;48.776;9.200;2023-02-23T06:47:35;8.80;99.90
9486;DHT22;4781;48.776;9.200;2023-02-23T06:50:04;8.80;99.90
9486;DHT22;4781;48.776;9.200;2023-02-23T06:52:33;8.80;99.90
9486;DHT22;4781;48.776;9.200;2023-02-23T06:55:01;8.80;99.90
9486;DHT22;4781;48.776;9.200;2023-02-23T06:57:30;8.80;99.90
9486;DHT22;4781;48.776;9.200;2023-02-23T06:59:59;8.80;99.90
9486;DHT22;4781;48.776;9.200;2023-02-23T07:02:30;8.80;99.90
9486;DHT22;4781;48.776;9.200;2023-02-23T07:05:02;8.70;99.90
9486;DHT22;4781;48.776;9.200;2023-02-23T07:07:31;8.70;99.90
9486;DHT22;4781;48.776;9.200;2023-02-23T07:10:01;8.80;99.90
9486;DHT22;4781;48.776;9.200;2023-02-23T07:12:30;8.80;99.90
9486;DHT22;4781;48.776;9.200;2023-02-23T07:14:59;8.80;99.90
9486;DHT22;4781;48.776;9.200;2023-02-23T07:17:27;8.80;99.90
9486;DHT22;4781;48.776;9.200;2023-02-23T07:19:55;8.70;99.90
9486;DHT22;4781;48.776;9.200;2023-02-23T07:22:24;8.70;99.90
9486;DHT22;4781;48.776;9.200;2023-02-23T07:24:54;8.70;99.90
9486;DHT22;4781;48.776;9.200;2023-02-23T07:27:23;8.80;99.90
9486;DHT22;4781;48.776;9.200;2023-02-23T07:29:53;8.80;99.90
9486;DHT22;4781;48.776;9.200;2023-02-23T07:32:21;8.80;99.90
9486;DHT22;4781;48.776;9.200;2023-02-23T07:34:56;8.80;99.90
9486;DHT22;4781;48.776;9.200;2023-02-23T07:37:23;8.90;99.90
9486;DHT22;4781;48.776;9.200;2023-02-23T07:39:57;8.90;99.90
9486;DHT22;4781;48.776;9.200;2023-02-23T07:42:21;9.00;99.90
9486;DHT22;4781;48.776;9.200;2023-02-23T07:44:50;9.00;99.90
9486;DHT22;4781;48.776;9.200;2023-02-23T07:47:18;9.10;99.90
9486;DHT22;4781;48.776;9.200;2023-02-23T07:49:48;9.20;99.90
9486;DHT22;4781;48.776;9.200;2023-02-23T07:52:17;9.20;99.90
9486;DHT22;4781;48.776;9.200;2023-02-23T07:54:45;9.20;99.90
9486;DHT22;4781;48.776;9.200;2023-02-23T07:57:15;9.30;99.90
9486;DHT22;4781;48.776;9.200;2023-02-23T07:59:43;9.30;99.90
9486;DHT22;4781;48.776;9.200;2023-02-23T08:02:12;9.20;99.90
9486;DHT22;4781;48.776;9.200;2023-02-23T08:04:45;9.30;99.90
9486;DHT22;4781;48.776;9.200;2023-02-23T08:07:14;9.30;99.90
9486;DHT22;4781;48.776;9.200;2023-02-23T08:09:42;9.40;99.90
9486;DHT22;4781;48.776;9.200;2023-02-23T08:12:11;9.40;99.90
9486;DHT22;4781;48.776;9.200;2023-02-23T08:14:42;9.40;99.90
9486;DHT22;4781;48.776;9.200;2023-02-23T08:17:11;9.40;99.90
9486;DHT22;4781;48.776;9.200;2023-02-23T08:19:39;9.50;99.90
9486;DHT22;4781;48.776;9.200;2023-02-23T08:22:07;9.50;99.90
9486;DHT22;4781;48.776;9.200;2023-02-23T08:24:36;9.40;99.90
9486;DHT22;4781;48.776;9.200;2023-02-23T08:27:05;9.50;99.90
9486;DHT22;4781;48.776;9.200;2023-02-23T08:29:33;9.60;99.90
9486;DHT22;4781;48.776;9.200;2023-02-23T08:32:03;9.60;99.90
9486;DHT22;4781;48.776;9.200;2023-02-23T08:34:40;9.70;99.90
9486;DHT22;4781;48.776;9.200;2023-02-23T08:37:10;9.70;99.90
9486;DHT22;4781;48.776;9.200;2023-02-23T08:40:01;9.80;99.90
9486;DHT22;4781;48.776;9.200;2023-02-23T08:42:29;9.90;99.90
9486;DHT22;4781;48.776;9.200;2023-02-23T08:44:58;9.90;99.90
9486;DHT22;4781;48.776;9.200;2023-02-23T08:47:27;9.90;99.90
9486;DHT22;4781;48.776;9.200;2023-02-23T08:49:55;9.90;99.90
9486;DHT22;4781;48.776;9.200;2023-02-23T08:52:24;10.00;99.90
9486;DHT22;4781;48.776;9.200;2023-02-23T08:54:52;10.00;99.90
9486;DHT22;4781;48.776;9.200;2023-02-23T08:57:22;10.00;99.90
9486;DHT22;4781;48.776;9.200;2023-02-23T08:59:50;10.10;99.90
9486;DHT22;4781;48.776;9.200;2023-02-23T09:02:18;10.10;99.90
9486;DHT22;4781;48.776;9.200;2023-02-23T09:04:48;10.10;99.90
9486;DHT22;4781;48.776;9.200;2023-02-23T09:07:19;10.20;99.90
9486;DHT22;4781;48.776;9.200;2023-02-23T09:09:55;10.20;99.90
9486;DHT22;4781;48.776;9.200;2023-02-23T09:12:24;10.30;99.90
9486;DHT22;4781;48.776;9.200;2023-02-23T09:14:52;10.30;99.90
9486;DHT22;4781;48.776;9.200;2023-02-23T09:17:21;10.40;99.90
9486;DHT22;4781;48.776;9.200;2023-02-23T09:19:49;10.40;99.90
9486;DHT22;4781;48.776;9.200;2023-02-23T09:22:18;10.50;99.90
9486;DHT22;4781;48.776;9.200;2023-02-23T09:24:46;10.60;99.90
9486;DHT22;4781;48.776;9.200;2023-02-23T09:27:15;10.60;99.90
9486;DHT22;4781;48.776;9.200;2023-02-23T09:29:43;10.70;99.90
9486;DHT22;4781;48.776;9.200;2023-02-23T09:32:11;10.70;99.90
9486;DHT22;4781;48.776;9.200;2023-02-23T09:34:40;10.70;99.90
9486;DHT22;4781;48.776;9.200;2023-02-23T09:37:08;10.80;99.90
9486;DHT22;4781;48.776;9.200;2023-02-23T09:39:37;10.90;99.90
9486;DHT22;4781;48.776;9.200;2023-02-23T09:42:19;10.90;99.90
9486;DHT22;4781;48.776;9.200;2023-02-23T09:45:20;10.90;99.90
9486;DHT22;4781;48.776;9.200;2023-02-23T09:48:08;11.00;99.90
9486;DHT22;4781;48.776;9.200;2023-02-23T09:50:38;11.10;99.90
9486;DHT22;4781;48.776;9.200;2023-02-23T09:53:29;11.10;99.90
9486;DHT22;4781;48.776;9.200;2023-02-23T09:56:26;11.20;99.90
9486;DHT22;4781;48.776;9.200;2023-02-23T09:59:09;11.20;99.90
9486;DHT22;4781;48.776;9.200;2023-02-23T10:01:53;11.30;99.90
9486;DHT22;4781;48.776;9.200;2023-02-23T10:04:42;11.30;99.90
9486;DHT22;4781;48.776;9.200;2023-02-23T10:13:13;11.60;99.90
9486;DHT22;4781;48.776;9.200;2023-02-23T10:15:46;11.70;99.90
9486;DHT22;4781;48.776;9.200;2023-02-23T10:18:21;11.90;99.90
9486;DHT22;4781;48.776;9.200;2023-02-23T10:21:19;12.00;99.90
9486;DHT22;4781;48.776;9.200;2023-02-23T10:24:10;12.20;99.90
9486;DHT22;4781;48.776;9.200;2023-02-23T10:26:53;12.40;99.90
9486;DHT22;4781;48.776;9.200;2023-02-23T10:29:38;12.50;99.90
9486;DHT22;4781;48.776;9.200;2023-02-23T10:32:44;12.70;99.90
9486;DHT22;4781;48.776;9.200;2023-02-23T10:35:21;12.70;99.90
9486;DHT22;4781;48.776;9.200;2023-02-23T10:37:56;12.80;99.90
9486;DHT22;4781;48.776;9.200;2023-02-23T10:40:28;12.80;99.90
9486;DHT22;4781;48.776;9.200;2023-02-23T10:43:00;12.80;99.90
9486;DHT22;4781;48.776;9.200;2023-02-23T10:45:33;12.60;99.90
9486;DHT22;4781;48.776;9.200;2023-02-23T10:48:04;12.80;99.90
9486;DHT22;4781;48.776;9.200;2023-02-23T10:50:40;12.90;99.90
9486;DHT22;4781;48.776;9.200;2023-02-23T10:53:17;12.80;99.90
9486;DHT22;4781;48.776;9.200;2023-02-23T10:56:07;12.90;99.90
9486;DHT22;4781;48.776;9.200;2023-02-23T10:58:44;13.00;99.90
9486;DHT22;4781;48.776;9.200;2023-02-23T11:01:22;13.10;99.90
9486;DHT22;4781;48.776;9.200;2023-02-23T11:04:24;13.10;99.90
9486;DHT22;4781;48.776;9.200;2023-02-23T11:07:17;13.20;99.90
9486;DHT22;4781;48.776;9.200;2023-02-23T11:09:47;13.10;99.90
9486;DHT22;4781;48.776;9.200;2023-02-23T11:14:56;13.20;99.90
9486;DHT22;4781;48.776;9.200;2023-02-23T11:17:35;13.30;99.90
9486;DHT22;4781;48.776;9.200;2023-02-23T11:20:25;13.30;99.90
9486;DHT22;4781;48.776;9.200;2023-02-23T11:23:00;13.40;99.90
9486;DHT22;4781;48.776;9.200;2023-02-23T11:25:31;13.40;99.90
9486;DHT22;4781;48.776;9.200;2023-02-23T11:28:00;13.50;99.90
9486;DHT22;4781;48.776;9.200;2023-02-23T11:30:34;13.60;99.90
9486;DHT22;4781;48.776;9.200;2023-02-23T11:33:04;13.60;99.90
9486;DHT22;4781;48.776;9.200;2023-02-23T11:35:37;13.60;99.90
9486;DHT22;4781;48.776;9.200;2023-02-23T11:38:28;13.60;99.90
9486;DHT22;4781;48.776;9.200;2023-02-23T11:41:05;13.60;99.90
9486;DHT22;4781;48.776;9.200;2023-02-23T11:43:37;13.50;99.90
9486;DHT22;4781;48.776;9.200;2023-02-23T11:46:09;13.50;99.90
9486;DHT22;4781;48.776;9.200;2023-02-23T11:48:51;13.50;99.90
9486;DHT22;4781;48.776;9.200;2023-02-23T11:51:45;13.40;99.90
9486;DHT22;4781;48.776;9.200;2023-02-23T11:54:28;13.40;99.90
9486;DHT22;4781;48.776;9.200;2023-02-23T11:57:05;13.40;99.90
9486;DHT22;4781;48.776;9.200;2023-02-23T11:59:34;13.40;99.90
9486;DHT22;4781;48.776;9.200;2023-02-23T12:02:20;13.40;99.90
9486;DHT22;4781;48.776;9.200;2023-02-23T12:05:00;13.50;99.90
9486;DHT22;4781;48.776;9.200;2023-02-23T12:10:29;13.80;99.90
9486;DHT22;4781;48.776;9.200;2023-02-23T12:21:46;13.90;99.90
9486;DHT22;4781;48.776;9.200;2023-02-23T12:30:05;13.80;99.90
9486;DHT22;4781;48.776;9.200;2023-02-23T12:32:57;13.70;99.90
9486;DHT22;4781;48.776;9.200;2023-02-23T12:35:55;13.70;99.90
9486;DHT22;4781;48.776;9.200;2023-02-23T12:41:17;13.60;99.90
9486;DHT22;4781;48.776;9.200;2023-02-23T12:43:59;13.60;99.90
9486;DHT22;4781;48.776;9.200;2023-02-23T12:46:30;13.40;99.90
9486;DHT22;4781;48.776;9.200;2023-02-23T12:49:35;13.30;99.90
9486;DHT22;4781;48.776;9.200;2023-02-23T12:52:26;13.30;99.90
9486;DHT22;4781;48.776;9.200;2023-02-23T12:54:56;13.40;99.90
9486;DHT22;4781;48.776;9.200;2023-02-23T12:58:13;13.40;99.90
9486;DHT22;4781;48.776;9.200;2023-02-23T13:18:27;13.50;99.90
9486;DHT22;4781;48.776;9.200;2023-02-23T13:21:23;13.50;99.90
9486;DHT22;4781;48.776;9.200;2023-02-23T13:24:06;13.50;99.90
9486;DHT22;4781;48.776;9.200;2023-02-23T13:29:43;13.40;99.90
9486;DHT22;4781;48.776;9.200;2023-02-23T13:32:19;13.30;99.90
9486;DHT22;4781;48.776;9.200;2023-02-23T13:34:59;13.30;99.90
9486;DHT22;4781;48.776;9.200;2023-02-23T13:37:50;13.30;99.90
9486;DHT22;4781;48.776;9.200;2023-02-23T13:40:44;13.30;99.90
9486;DHT22;4781;48.776;9.200;2023-02-23T13:43:27;13.30;99.90
9486;DHT22;4781;48.776;9.200;2023-02-23T13:48:52;13.20;99.90
9486;DHT22;4781;48.776;9.200;2023-02-23T13:51:43;13.20;99.90
9486;DHT22;4781;48.776;9.200;2023-02-23T13:54:26;13.20;99.90
9486;DHT22;4781;48.776;9.200;2023-02-23T13:57:02;13.20;99.90
9486;DHT22;4781;48.776;9.200;2023-02-23T13:59:43;13.30;99.90
9486;DHT22;4781;48.776;9.200;2023-02-23T14:04:56;13.20;99.90
9486;DHT22;4781;48.776;9.200;2023-02-23T14:07:29;13.20;99.90
9486;DHT22;4781;48.776;9.200;2023-02-23T14:10:03;13.10;99.90
9486;DHT22;4781;48.776;9.200;2023-02-23T14:12:41;13.10;99.90
9486;DHT22;4781;48.776;9.200;2023-02-23T14:18:02;13.10;99.90
9486;DHT22;4781;48.776;9.200;2023-02-23T14:24:13;13.10;99.90
9486;DHT22;4781;48.776;9.200;2023-02-23T14:30:12;13.10;99.90
9486;DHT22;4781;48.776;9.200;2023-02-23T14:32:48;13.10;99.90
9486;DHT22;4781;48.776;9.200;2023-02-23T14:38:21;13.10;99.90
9486;DHT22;4781;48.776;9.200;2023-02-23T14:40:52;13.10;99.90
9486;DHT22;4781;48.776;9.200;2023-02-23T14:46:23;13.10;99.90
9486;DHT22;4781;48.776;9.200;2023-02-23T14:49:14;13.00;99.90
9486;DHT22;4781;48.776;9.200;2023-02-23T14:52:07;13.00;99.90
9486;DHT22;4781;48.776;9.200;2023-02-23T14:54:39;13.00;99.90
9486;DHT22;4781;48.776;9.200;2023-02-23T14:57:22;13.00;99.90
9486;DHT22;4781;48.776;9.200;2023-02-23T14:59:59;13.00;99.90
9486;DHT22;4781;48.776;9.200;2023-02-23T15:02:31;12.90;99.90
9486;DHT22;4781;48.776;9.200;2023-02-23T15:05:48;12.80;99.90
9486;DHT22;4781;48.776;9.200;2023-02-23T15:07:41;12.80;99.90
9486;DHT22;4781;48.776;9.200;2023-02-23T15:10:23;12.80;99.90
9486;DHT22;4781;48.776;9.200;2023-02-23T15:12:47;12.80;99.90
9486;DHT22;4781;48.776;9.200;2023-02-23T15:15:19;12.80;99.90
9486;DHT22;4781;48.776;9.200;2023-02-23T15:17:56;12.80;99.90
9486;DHT22;4781;48.776;9.200;2023-02-23T15:20:29;12.70;99.90
9486;DHT22;4781;48.776;9.200;2023-02-23T15:23:01;12.70;99.90
9486;DHT22;4781;48.776;9.200;2023-02-23T15:25:39;12.70;99.90
9486;DHT22;4781;48.776;9.200;2023-02-23T15:28:17;12.70;99.90
9486;DHT22;4781;48.776;9.200;2023-02-23T15:30:55;12.70;99.90
9486;DHT22;4781;48.776;9.200;2023-02-23T15:33:25;12.80;99.90
9486;DHT22;4781;48.776;9.200;2023-02-23T15:38:40;12.70;99.90
9486;DHT22;4781;48.776;9.200;2023-02-23T15:41:33;12.70;99.90
9486;DHT22;4781;48.776;9.200;2023-02-23T15:46:56;12.80;99.90
9486;DHT22;4781;48.776;9.200;2023-02-23T15:49:31;12.70;99.90
9486;DHT22;4781;48.776;9.200;2023-02-23T15:52:08;12.80;99.90
9486;DHT22;4781;48.776;9.200;2023-02-23T15:55:01;12.80;99.90
9486;DHT22;4781;48.776;9.200;2023-02-23T15:57:31;12.70;99.90
9486;DHT22;4781;48.776;9.200;2023-02-23T16:00:04;12.70;99.90
9486;DHT22;4781;48.776;9.200;2023-02-23T16:02:36;12.60;99.90
9486;DHT22;4781;48.776;9.200;2023-02-23T16:05:19;12.60;99.90
9486;DHT22;4781;48.776;9.200;2023-02-23T16:07:53;12.60;99.90
9486;DHT22;4781;48.776;9.200;2023-02-23T16:10:26;12.60;99.90
9486;DHT22;4781;48.776;9.200;2023-02-23T16:13:02;12.60;99.90
9486;DHT22;4781;48.776;9.200;2023-02-23T16:15:34;12.50;99.90
9486;DHT22;4781;48.776;9.200;2023-02-23T16:18:11;12.50;99.90
9486;DHT22;4781;48.776;9.200;2023-02-23T16:20:45;12.40;99.90
9486;DHT22;4781;48.776;9.200;2023-02-23T16:23:28;12.40;99.90
9486;DHT22;4781;48.776;9.200;2023-02-23T16:26:07;12.30;99.90
9486;DHT22;4781;48.776;9.200;2023-02-23T16:28:45;12.30;99.90
9486;DHT22;4781;48.776;9.200;2023-02-23T16:31:19;12.30;99.90
9486;DHT22;4781;48.776;9.200;2023-02-23T16:33:57;12.30;99.90
9486;DHT22;4781;48.776;9.200;2023-02-23T16:36:35;12.30;99.90
9486;DHT22;4781;48.776;9.200;2023-02-23T16:39:12;12.20;99.90
9486;DHT22;4781;48.776;9.200;2023-02-23T16:41:42;12.10;99.90
9486;DHT22;4781;48.776;9.200;2023-02-23T16:44:16;12.20;99.90
9486;DHT22;4781;48.776;9.200;2023-02-23T16:49:35;12.10;99.90
9486;DHT22;4781;48.776;9.200;2023-02-23T16:52:11;12.10;99.90
9486;DHT22;4781;48.776;9.200;2023-02-23T16:54:46;12.00;99.90
9486;DHT22;4781;48.776;9.200;2023-02-23T16:57:27;12.00;99.90
9486;DHT22;4781;48.776;9.200;2023-02-23T17:00:01;11.90;99.90
9486;DHT22;4781;48.776;9.200;2023-02-23T17:02:31;11.90;99.90
9486;DHT22;4781;48.776;9.200;2023-02-23T17:05:04;11.90;99.90
9486;DHT22;4781;48.776;9.200;2023-02-23T17:07:31;11.90;99.90
9486;DHT22;4781;48.776;9.200;2023-02-23T17:10:02;11.80;99.90
9486;DHT22;4781;48.776;9.200;2023-02-23T17:12:32;11.80;99.90
9486;DHT22;4781;48.776;9.200;2023-02-23T17:15:01;11.80;99.90
9486;DHT22;4781;48.776;9.200;2023-02-23T17:17:30;11.80;99.90
9486;DHT22;4781;48.776;9.200;2023-02-23T17:19:58;11.70;99.90
9486;DHT22;4781;48.776;9.200;2023-02-23T17:22:27;11.70;99.90
9486;DHT22;4781;48.776;9.200;2023-02-23T17:24:55;11.70;99.90
9486;DHT22;4781;48.776;9.200;2023-02-23T17:27:24;11.60;99.90
9486;DHT22;4781;48.776;9.200;2023-02-23T17:29:52;11.60;99.90
9486;DHT22;4781;48.776;9.200;2023-02-23T17:32:20;11.60;99.90
9486;DHT22;4781;48.776;9.200;2023-02-23T17:34:49;11.60;99.90
9486;DHT22;4781;48.776;9.200;2023-02-23T17:37:18;11.60;99.90
9486;DHT22;4781;48.776;9.200;2023-02-23T17:39:47;11.50;99.90
9486;DHT22;4781;48.776;9.200;2023-02-23T17:42:21;11.50;99.90
9486;DHT22;4781;48.776;9.200;2023-02-23T17:44:46;11.50;99.90
9486;DHT22;4781;48.776;9.200;2023-02-23T17:47:15;11.50;99.90
9486;DHT22;4781;48.776;9.200;2023-02-23T17:49:43;11.50;99.90
9486;DHT22;4781;48.776;9.200;2023-02-23T17:52:11;11.50;99.90
9486;DHT22;4781;48.776;9.200;2023-02-23T17:54:40;11.40;99.90
9486;DHT22;4781;48.776;9.200;2023-02-23T17:57:08;11.40;99.90
9486;DHT22;4781;48.776;9.200;2023-02-23T17:59:36;11.40;99.90
9486;DHT22;4781;48.776;9.200;2023-02-23T18:02:07;11.40;99.90
9486;DHT22;4781;48.776;9.200;2023-02-23T18:04:43;11.40;99.90
9486;DHT22;4781;48.776;9.200;2023-02-23T18:07:12;11.30;99.90
9486;DHT22;4781;48.776;9.200;2023-02-23T18:09:41;11.30;99.90
9486;DHT22;4781;48.776;9.200;2023-02-23T18:12:10;11.30;99.90
9486;DHT22;4781;48.776;9.200;2023-02-23T18:14:43;11.20;99.90
9486;DHT22;4781;48.776;9.200;2023-02-23T18:17:12;11.20;99.90
9486;DHT22;4781;48.776;9.200;2023-02-23T18:19:46;11.20;99.90
9486;DHT22;4781;48.776;9.200;2023-02-23T18:22:16;11.20;99.90
9486;DHT22;4781;48.776;9.200;2023-02-23T18:24:45;11.20;99.90
9486;DHT22;4781;48.776;9.200;2023-02-23T18:27:13;11.10;99.90
9486;DHT22;4781;48.776;9.200;2023-02-23T18:29:41;11.20;99.90
9486;DHT22;4781;48.776;9.200;2023-02-23T18:32:10;11.10;99.90
9486;DHT22;4781;48.776;9.200;2023-02-23T18:34:39;11.10;99.90
9486;DHT22;4781;48.776;9.200;2023-02-23T18:37:07;11.10;99.90
9486;DHT22;4781;48.776;9.200;2023-02-23T18:39:36;11.00;99.90
9486;DHT22;4781;48.776;9.200;2023-02-23T18:42:05;11.00;99.90
9486;DHT22;4781;48.776;9.200;2023-02-23T18:44:33;10.90;99.90
9486;DHT22;4781;48.776;9.200;2023-02-23T18:47:02;10.90;99.90
9486;DHT22;4781;48.776;9.200;2023-02-23T18:49:31;10.90;99.90
9486;DHT22;4781;48.776;9.200;2023-02-23T18:51:59;10.80;99.90